Time;durP1;ratioP1;P1;durP2;ratioP2;P2;SDS_P1;SDS_P2;PMS_P1;PMS_P2;Temp;Humidity;BMP_temperature;BMP_pressure;BME280_temperature;BME280_humidity;BME280_pressure;Samples;Min_cycle;Max_cycle;Signal;HPM_P1;HPM_P2
2022/02/12 00:02:25;;;;;;;5.80;3.50;;;;;;;;;;5096123;28;20465;-95
2022/02/12 00:04:51;;;;;;;8.47;4.17;;;;;;;;;;5094221;28;20416;-95
2022/02/12 00:07:17;;;;;;;5.93;3.30;;;;;;;;;;5098408;28;20423;-91
2022/02/12 00:09:43;;;;;;;5.60;3.37;;;;;;;;;;5113273;28;20459;-93
2022/02/12 00:12:09;;;;;;;9.37;3.47;;;;;;;;;;5140187;27;20414;-96
2022/02/12 00:14:35;;;;;;;8.17;3.70;;;;;;;;;;5141665;28;20459;-93
2022/02/12 00:17:01;;;;;;;8.77;4.00;;;;;;;;;;5140349;28;20491;-94
2022/02/12 00:19:26;;;;;;;6.00;3.37;;;;;;;;;;5137274;28;20418;-94
2022/02/12 00:21:52;;;;;;;7.53;4.03;;;;;;;;;;5142198;28;20415;-95
2022/02/12 00:24:18;;;;;;;10.73;4.90;;;;;;;;;;5140634;28;20421;-94
2022/02/12 00:26:44;;;;;;;8.83;4.40;;;;;;;;;;5142429;28;20415;-94
2022/02/12 00:29:10;;;;;;;15.63;4.90;;;;;;;;;;5139094;28;20420;-85
2022/02/12 00:31:36;;;;;;;8.30;4.37;;;;;;;;;;5135456;28;20421;-89
2022/02/12 00:34:02;;;;;;;10.00;3.60;;;;;;;;;;5135002;28;20447;-86
2022/02/12 00:36:29;;;;;;;4.50;3.60;;;;;;;;;;5131937;28;20428;-94
2022/02/12 00:38:55;;;;;;;8.83;3.83;;;;;;;;;;5135061;27;20828;-86
2022/02/12 00:41:21;;;;;;;10.37;4.10;;;;;;;;;;5132999;28;20431;-92
2022/02/12 00:43:47;;;;;;;6.10;3.13;;;;;;;;;;5132832;28;20778;-84
2022/02/12 00:46:12;;;;;;;6.73;3.77;;;;;;;;;;5134160;28;20418;-86
2022/02/12 00:48:38;;;;;;;11.40;4.37;;;;;;;;;;5136977;28;20431;-94
2022/02/12 00:51:04;;;;;;;6.37;3.43;;;;;;;;;;5140617;28;20465;-86
2022/02/12 00:53:30;;;;;;;12.73;4.70;;;;;;;;;;5138056;28;20465;-91
2022/02/12 00:55:57;;;;;;;9.30;4.43;;;;;;;;;;5137395;28;20478;-91
2022/02/12 00:58:23;;;;;;;12.17;4.73;;;;;;;;;;5140711;28;20410;-89
2022/02/12 01:00:49;;;;;;;11.87;4.43;;;;;;;;;;5139660;28;20409;-94
2022/02/12 01:03:15;;;;;;;11.40;4.63;;;;;;;;;;5143462;28;20454;-88
2022/02/12 01:05:41;;;;;;;14.60;5.13;;;;;;;;;;5142028;28;20433;-91
2022/02/12 01:08:07;;;;;;;10.80;5.60;;;;;;;;;;5140111;28;20413;-93
2022/02/12 01:10:34;;;;;;;7.90;4.63;;;;;;;;;;5134407;28;20410;-89
2022/02/12 01:13:01;;;;;;;7.87;4.10;;;-1.60;99.90;;;;;;5135185;28;20756;-92
2022/02/12 01:15:32;;;;;;;8.47;4.90;;;-1.80;99.90;;;;;;5137793;28;20846;-86
2022/02/12 01:17:57;;;;;;;7.63;3.97;;;-1.80;99.90;;;;;;5133345;27;20399;-84
2022/02/12 01:20:23;;;;;;;9.47;4.23;;;-1.80;99.90;;;;;;5132234;28;20435;-90
2022/02/12 01:22:49;;;;;;;8.00;4.17;;;-1.90;99.90;;;;;;5133159;27;20165;-90
2022/02/12 01:25:15;;;;;;;6.70;2.40;;;-1.80;99.90;;;;;;5135193;27;20300;-90
2022/02/12 01:27:41;;;;;;;6.40;3.50;;;-1.80;99.90;;;;;;5136825;27;20160;-83
2022/02/12 01:30:10;;;;;;;7.20;3.03;;;-1.80;99.90;;;;;;5136633;27;20559;-85
2022/02/12 01:32:37;;;;;;;10.23;3.97;;;-1.80;99.90;;;;;;5137098;27;20539;-91
2022/02/12 01:35:03;;;;;;;13.20;4.00;;;-1.80;99.90;;;;;;5135752;27;20463;-92
2022/02/12 01:37:28;;;;;;;8.33;2.80;;;-1.80;99.90;;;;;;5136983;27;20412;-85
2022/02/12 01:39:54;;;;;;;6.67;3.30;;;-1.80;99.90;;;;;;5135751;27;20925;-90
2022/02/12 01:42:20;;;;;;;10.43;3.10;;;-1.90;99.90;;;;;;5135715;27;20268;-91
2022/02/12 01:44:49;;;;;;;5.80;3.43;;;-1.90;99.90;;;;;;5136259;27;20184;-92
2022/02/12 01:47:15;;;;;;;8.90;2.90;;;-2.10;99.90;;;;;;5136450;27;20512;-89
2022/02/12 01:49:41;;;;;;;8.60;2.80;;;-2.00;99.90;;;;;;5136543;27;20445;-89
2022/02/12 01:52:11;;;;;;;5.00;4.00;;;-2.10;99.90;;;;;;5135403;27;20524;-86
2022/02/12 01:54:40;;;;;;;6.00;2.63;;;-2.00;99.90;;;;;;5135378;27;20514;-90
2022/02/12 01:57:07;;;;;;;5.77;2.23;;;-2.10;99.90;;;;;;5135411;27;20422;-91
2022/02/12 01:59:34;;;;;;;8.97;4.10;;;-2.00;99.90;;;;;;5134964;27;20402;-89
2022/02/12 02:02:01;;;;;;;10.73;4.00;;;-2.10;99.90;;;;;;5164090;22;20605;-90
2022/02/12 02:04:27;;;;;;;3.70;3.00;;;-2.00;99.90;;;;;;5094953;28;20436;-88
2022/02/12 02:06:55;;;;;;;6.33;2.57;;;-2.10;99.90;;;;;;5097460;28;20946;-92
2022/02/12 02:09:21;;;;;;;3.17;2.03;;;-2.10;99.90;;;;;;5102022;28;20432;-87
2022/02/12 02:11:47;;;;;;;8.27;3.40;;;-2.10;99.90;;;;;;5113670;28;20417;-87
2022/02/12 02:14:13;;;;;;;4.67;2.80;;;-2.20;99.90;;;;;;5107457;28;20216;-87
2022/02/12 02:16:41;;;;;;;8.83;3.63;;;-2.20;99.90;;;;;;5109098;28;20427;-88
2022/02/12 02:19:07;;;;;;;5.40;2.77;;;-2.30;99.90;;;;;;5107398;28;20472;-87
2022/02/12 02:21:36;;;;;;;13.40;4.20;;;-2.20;99.90;;;;;;5106161;28;20416;-90
2022/02/12 02:24:03;;;;;;;8.17;3.50;;;-2.10;99.90;;;;;;5093263;28;20453;-91
2022/02/12 02:26:33;;;;;;;9.73;3.53;;;-2.10;99.90;;;;;;5095677;28;21011;-90
2022/02/12 02:29:02;;;;;;;5.47;3.00;;;-2.20;99.90;;;;;;5084661;28;20519;-89
2022/02/12 02:31:28;;;;;;;4.70;2.80;;;-2.20;99.90;;;;;;5090729;28;20432;-88
2022/02/12 02:33:53;;;;;;;8.07;2.93;;;-2.10;99.90;;;;;;5075843;28;20905;-86
2022/02/12 02:36:19;;;;;;;4.63;2.40;;;-2.20;99.90;;;;;;5074581;28;20233;-90
2022/02/12 02:38:44;;;;;;;10.00;3.73;;;-2.10;99.90;;;;;;5077913;28;20540;-88
2022/02/12 02:41:10;;;;;;;3.07;2.77;;;-2.10;99.90;;;;;;5080178;28;20236;-92
2022/02/12 02:43:37;;;;;;;6.67;3.57;;;-2.20;99.90;;;;;;5085112;28;20226;-91
2022/02/12 02:46:03;;;;;;;7.40;2.87;;;-2.20;99.90;;;;;;5080328;28;20421;-92
2022/02/12 02:48:29;;;;;;;3.40;2.77;;;-2.20;99.90;;;;;;5074095;28;20972;-92
2022/02/12 02:56:26;;;;;;;6.80;3.83;;;-2.00;99.90;;;;;;5082947;28;20417;-93
2022/02/12 02:58:53;;;;;;;9.20;3.50;;;-1.90;99.90;;;;;;5078174;28;20422;-95
2022/02/12 03:01:21;;;;;;;8.37;3.17;;;-1.80;99.90;;;;;;5081559;28;20234;-94
2022/02/12 03:03:52;;;;;;;2.43;1.93;;;-1.70;99.90;;;;;;5084079;28;20404;-95
2022/02/12 03:06:19;;;;;;;7.83;2.70;;;-1.60;99.90;;;;;;5081755;28;20423;-92
2022/02/12 03:08:45;;;;;;;9.63;2.50;;;-1.40;99.90;;;;;;5075971;28;20409;-94
2022/02/12 03:11:13;;;;;;;5.03;2.80;;;-1.40;99.90;;;;;;5073684;28;20413;-92
2022/02/12 03:13:40;;;;;;;4.57;2.97;;;-1.40;99.90;;;;;;5073665;28;20417;-89
2022/02/12 03:16:08;;;;;;;10.53;3.00;;;-1.30;99.90;;;;;;5077285;28;20986;-86
2022/02/12 03:18:44;;;;;;;4.20;2.43;;;-1.30;99.90;;;;;;5092127;28;20484;-89
2022/02/12 03:21:10;;;;;;;4.60;3.20;;;-1.30;99.90;;;;;;5075909;28;20446;-91
2022/02/12 03:23:41;;;;;;;6.20;3.57;;;-1.30;99.90;;;;;;5077300;28;20464;-92
2022/02/12 03:26:07;;;;;;;12.20;3.30;;;-1.20;99.90;;;;;;5079480;28;20809;-85
2022/02/12 03:28:32;;;;;;;4.87;3.27;;;-1.00;99.90;;;;;;5079406;28;20418;-85
2022/02/12 03:30:58;;;;;;;5.77;3.50;;;-1.00;99.90;;;;;;5095176;28;20419;-91
2022/02/12 03:33:24;;;;;;;10.03;4.87;;;-0.90;99.90;;;;;;5076888;28;20210;-90
2022/02/12 03:35:50;;;;;;;6.33;3.83;;;-0.90;99.90;;;;;;5077291;28;20218;-93
2022/02/12 03:38:19;;;;;;;10.80;4.80;;;-0.90;99.90;;;;;;5080353;28;20172;-91
2022/02/12 03:40:58;;;;;;;12.30;2.90;;;-0.80;99.90;;;;;;5092121;28;20439;-94
2022/02/12 03:43:24;;;;;;;5.87;3.53;;;-0.80;99.90;;;;;;5080625;28;20415;-92
2022/02/12 03:45:50;;;;;;;8.40;2.70;;;-0.70;99.90;;;;;;5075486;28;20420;-93
2022/02/12 03:48:16;;;;;;;5.60;3.50;;;-0.70;99.90;;;;;;5078469;28;20440;-86
2022/02/12 03:50:42;;;;;;;9.50;4.20;;;-0.70;99.90;;;;;;5076056;28;20497;-93
2022/02/12 03:53:11;;;;;;;9.63;5.03;;;-0.60;99.90;;;;;;5075945;28;20470;-96
2022/02/12 03:55:40;;;;;;;5.17;3.43;;;-0.60;99.90;;;;;;5074740;28;20539;-87
2022/02/12 03:58:07;;;;;;;10.53;4.70;;;-0.60;99.90;;;;;;5072343;28;20426;-89
2022/02/12 04:00:34;;;;;;;8.83;4.57;;;-0.60;99.90;;;;;;5073885;28;20417;-90
2022/02/12 04:03:01;;;;;;;11.03;5.00;;;-0.50;99.90;;;;;;5072631;28;20508;-88
2022/02/12 04:05:27;;;;;;;5.03;3.30;;;-0.50;99.90;;;;;;5073336;28;20768;-86
2022/02/12 04:07:53;;;;;;;4.43;3.13;;;-0.50;99.90;;;;;;5073271;28;20414;-87
2022/02/12 04:10:19;;;;;;;8.40;4.10;;;-0.60;99.90;;;;;;5072816;28;20179;-86
2022/02/12 04:12:45;;;;;;;9.83;4.00;;;-0.50;99.90;;;;;;5073244;28;20187;-87
2022/02/12 04:15:12;;;;;;;9.83;3.90;;;-0.50;99.90;;;;;;5073287;28;20455;-88
2022/02/12 04:17:38;;;;;;;5.00;4.43;;;-0.50;99.90;;;;;;5071942;28;20511;-87
2022/02/12 04:20:10;;;;;;;7.87;3.50;;;-0.50;99.90;;;;;;5071977;28;20406;-87
2022/02/12 04:22:37;;;;;;;15.77;5.37;;;-0.50;99.90;;;;;;5088913;28;20765;-86
2022/02/12 04:25:05;;;;;;;9.00;3.10;;;-0.50;99.90;;;;;;5071621;28;20418;-87
2022/02/12 04:27:30;;;;;;;5.80;3.63;;;-0.50;99.90;;;;;;5073225;28;20902;-87
2022/02/12 04:29:56;;;;;;;6.47;3.57;;;-0.50;99.90;;;;;;5073231;28;20414;-87
2022/02/12 04:32:22;;;;;;;8.73;3.33;;;-0.50;99.90;;;;;;5073616;28;20183;-88
2022/02/12 04:34:48;;;;;;;8.73;2.53;;;-0.50;99.90;;;;;;5073518;28;20548;-88
2022/02/12 04:37:14;;;;;;;8.10;4.10;;;-0.40;99.90;;;;;;5073158;28;20226;-88
2022/02/12 04:39:39;;;;;;;4.90;2.77;;;-0.40;99.90;;;;;;5073107;28;20602;-88
2022/02/12 04:42:11;;;;;;;8.90;3.30;;;-0.40;99.90;;;;;;5089219;28;20183;-89
2022/02/12 04:44:51;;;;;;;4.77;1.97;;;-0.40;99.90;;;;;;5073867;28;20178;-88
2022/02/12 04:47:18;;;;;;;4.40;1.83;;;-0.40;99.90;;;;;;5073172;28;20486;-89
2022/02/12 04:49:44;;;;;;;5.00;2.83;;;-0.50;99.90;;;;;;5072359;28;20432;-92
2022/02/12 04:52:12;;;;;;;9.40;3.23;;;-0.50;99.90;;;;;;5071734;28;20421;-93
2022/02/12 04:54:37;;;;;;;6.30;3.50;;;-0.60;99.90;;;;;;5072998;28;20470;-90
2022/02/12 04:57:04;;;;;;;7.30;2.37;;;-0.60;99.90;;;;;;5072126;28;20431;-89
2022/02/12 04:59:32;;;;;;;12.60;3.87;;;-0.60;99.90;;;;;;5075442;28;20176;-87
2022/02/12 05:01:58;;;;;;;5.97;3.00;;;-0.60;99.90;;;;;;5076755;28;20466;-87
2022/02/12 05:04:23;;;;;;;5.70;3.33;;;-0.50;99.90;;;;;;5075686;28;20428;-90
2022/02/12 05:06:49;;;;;;;5.40;3.07;;;-0.50;99.90;;;;;;5092394;28;20164;-89
2022/02/12 05:09:16;;;;;;;4.50;3.10;;;-0.50;99.90;;;;;;5092209;28;20195;-88
2022/02/12 05:11:43;;;;;;;9.70;3.50;;;-0.50;99.90;;;;;;5075442;28;20426;-87
2022/02/12 05:14:09;;;;;;;3.97;2.60;;;-0.40;99.90;;;;;;5075244;28;20428;-93
2022/02/12 05:16:35;;;;;;;8.67;3.07;;;-0.40;99.90;;;;;;5076464;28;20422;-89
2022/02/12 05:19:00;;;;;;;7.80;3.27;;;-0.40;99.90;;;;;;5075395;28;20422;-89
2022/02/12 05:21:26;;;;;;;6.90;3.07;;;-0.40;99.90;;;;;;5075160;28;20446;-91
2022/02/12 05:23:51;;;;;;;7.80;3.93;;;-0.40;99.90;;;;;;5076234;28;20175;-92
2022/02/12 05:26:17;;;;;;;6.80;3.80;;;-0.40;99.90;;;;;;5075577;28;20179;-91
2022/02/12 05:28:43;;;;;;;6.87;3.30;;;-0.50;99.90;;;;;;5092257;28;20168;-95
2022/02/12 05:31:08;;;;;;;6.20;2.60;;;-0.50;99.90;;;;;;5074928;28;20237;-89
2022/02/12 05:33:37;;;;;;;8.70;3.20;;;-0.60;99.90;;;;;;5075658;28;20430;-87
2022/02/12 05:36:08;;;;;;;5.90;2.63;;;-0.50;99.90;;;;;;5075510;28;20211;-86
2022/02/12 05:38:36;;;;;;;14.53;3.70;;;-0.60;99.90;;;;;;5077057;28;20426;-87
2022/02/12 05:41:02;;;;;;;7.70;3.10;;;-0.70;99.90;;;;;;5078494;28;20422;-90
2022/02/12 05:43:28;;;;;;;4.80;2.10;;;-0.80;99.90;;;;;;5076807;28;21012;-87
2022/02/12 05:45:53;;;;;;;4.43;2.60;;;-0.90;99.90;;;;;;5079238;28;20437;-89
2022/02/12 05:48:19;;;;;;;7.90;3.50;;;-1.00;99.90;;;;;;5077471;28;20240;-87
2022/02/12 05:50:45;;;;;;;5.50;2.90;;;-1.00;99.90;;;;;;5078210;28;20192;-94
2022/02/12 05:53:11;;;;;;;9.87;3.20;;;-1.00;99.90;;;;;;5077941;28;20421;-87
2022/02/12 05:55:37;;;;;;;4.70;2.30;;;-1.10;99.90;;;;;;5077228;28;20214;-88
2022/02/12 05:58:02;;;;;;;7.53;2.13;;;-1.10;99.90;;;;;;5079372;28;20581;-87
2022/02/12 06:00:28;;;;;;;5.90;3.00;;;-1.10;99.90;;;;;;5076773;28;20430;-89
2022/02/12 06:02:54;;;;;;;4.33;2.93;;;-1.20;99.90;;;;;;5075488;28;20276;-87
2022/02/12 06:05:20;;;;;;;7.37;3.13;;;-1.10;99.90;;;;;;5077409;28;20179;-88
2022/02/12 06:07:46;;;;;;;6.27;3.13;;;-1.10;99.90;;;;;;5076508;28;20429;-88
2022/02/12 06:10:13;;;;;;;6.97;3.57;;;-1.10;99.90;;;;;;5075385;28;20414;-88
2022/02/12 06:12:39;;;;;;;6.50;3.90;;;-1.10;99.90;;;;;;5076307;28;20643;-88
2022/02/12 06:15:05;;;;;;;5.17;3.17;;;-1.20;99.90;;;;;;5092621;28;20469;-88
2022/02/12 06:17:30;;;;;;;7.60;4.20;;;-1.20;99.90;;;;;;5075615;28;20428;-89
2022/02/12 06:19:56;;;;;;;5.53;2.97;;;-1.20;99.90;;;;;;5075285;28;20473;-87
2022/02/12 06:22:26;;;;;;;9.57;4.90;;;-1.30;99.90;;;;;;5076759;28;20175;-89
2022/02/12 06:24:51;;;;;;;8.37;4.27;;;-1.30;99.90;;;;;;5077520;28;20166;-89
2022/02/12 06:27:17;;;;;;;12.27;3.73;;;-1.30;99.90;;;;;;5076752;28;20414;-88
2022/02/12 06:29:42;;;;;;;12.87;3.77;;;-1.40;99.90;;;;;;5079084;28;20682;-87
2022/02/12 06:32:08;;;;;;;13.47;4.50;;;-1.40;99.90;;;;;;5094006;28;20178;-90
2022/02/12 06:34:37;;;;;;;6.77;4.17;;;-1.50;99.90;;;;;;5077041;28;20294;-88
2022/02/12 06:37:03;;;;;;;9.40;4.33;;;-1.50;99.90;;;;;;5075409;28;20190;-89
2022/02/12 06:39:28;;;;;;;9.57;4.67;;;-1.40;99.90;;;;;;5075485;28;20914;-89
2022/02/12 06:42:03;;;;;;;12.03;6.30;;;-1.40;99.90;;;;;;5075482;28;20456;-88
2022/02/12 06:44:29;;;;;;;10.60;4.97;;;-1.50;99.90;;;;;;5076596;28;20568;-88
2022/02/12 06:46:55;;;;;;;8.33;4.33;;;-1.50;99.90;;;;;;5090702;28;20464;-93
2022/02/12 06:49:23;;;;;;;11.37;4.87;;;-1.40;99.90;;;;;;5073888;28;20187;-88
2022/02/12 06:51:49;;;;;;;8.00;3.53;;;-1.40;99.90;;;;;;5077432;28;20205;-87
2022/02/12 06:54:14;;;;;;;4.70;3.83;;;-1.40;99.90;;;;;;5076924;28;20930;-89
2022/02/12 06:56:44;;;;;;;3.87;3.17;;;-1.30;99.90;;;;;;5074327;28;20196;-87
2022/02/12 06:59:09;;;;;;;7.00;4.03;;;-1.30;99.90;;;;;;5074828;28;20172;-88
2022/02/12 07:01:35;;;;;;;7.90;3.17;;;-1.30;99.90;;;;;;5075844;28;20984;-87
2022/02/12 07:04:00;;;;;;;6.37;3.00;;;-1.20;99.90;;;;;;5092012;28;20708;-87
2022/02/12 07:06:26;;;;;;;8.03;3.03;;;-1.20;99.90;;;;;;5076288;28;20171;-87
2022/02/12 07:08:52;;;;;;;4.30;2.40;;;-1.10;99.90;;;;;;5076407;28;20190;-87
2022/02/12 07:11:20;;;;;;;4.33;3.07;;;-1.00;99.90;;;;;;5091155;28;20206;-87
2022/02/12 07:13:49;;;;;;;4.90;2.73;;;-1.00;99.90;;;;;;5075965;28;20421;-90
2022/02/12 07:16:14;;;;;;;7.77;3.37;;;-0.90;99.90;;;;;;5076141;28;20573;-89
2022/02/12 07:18:40;;;;;;;4.60;2.43;;;-0.80;99.90;;;;;;5077830;28;20479;-89
2022/02/12 07:21:08;;;;;;;9.40;2.50;;;-0.70;99.90;;;;;;5073875;28;20186;-88
2022/02/12 07:23:33;;;;;;;3.97;1.63;;;-0.70;99.90;;;;;;5075085;28;20168;-91
2022/02/12 07:25:59;;;;;;;5.23;3.63;;;-0.60;99.90;;;;;;5058010;28;20475;-88
2022/02/12 07:28:27;;;;;;;3.70;2.70;;;-0.50;99.90;;;;;;5075514;28;20173;-90
2022/02/12 07:30:55;;;;;;;7.43;3.77;;;-0.40;99.90;;;;;;5075656;28;20171;-89
2022/02/12 07:33:26;;;;;;;4.03;2.70;;;-0.10;99.90;;;;;;5081919;28;20415;-95
2022/02/12 07:35:53;;;;;;;4.80;3.07;;;0.30;99.90;;;;;;5083847;28;20458;-94
2022/02/12 07:38:18;;;;;;;6.57;3.50;;;1.00;99.90;;;;;;5081326;28;20407;-95
2022/02/12 07:40:44;;;;;;;9.10;3.40;;;1.60;99.90;;;;;;5079199;28;20439;-94
2022/02/12 07:43:10;;;;;;;7.13;2.53;;;2.50;99.90;;;;;;5079567;28;20191;-95
2022/02/12 07:45:38;;;;;;;7.73;2.97;;;2.90;99.90;;;;;;5081438;28;20262;-95
2022/02/12 07:48:04;;;;;;;8.00;2.90;;;3.20;99.90;;;;;;5077700;28;20172;-91
2022/02/12 07:50:30;;;;;;;9.43;2.33;;;3.60;99.90;;;;;;5077558;28;21029;-95
2022/02/12 07:52:55;;;;;;;6.73;1.93;;;3.70;99.90;;;;;;5081209;28;20420;-95
2022/02/12 07:55:21;;;;;;;7.37;3.50;;;4.90;99.90;;;;;;5081493;28;20235;-91
2022/02/12 07:57:53;;;;;;;8.70;2.30;;;5.20;99.90;;;;;;5082932;28;20177;-91
2022/02/12 08:00:18;;;;;;;5.87;2.00;;;5.40;99.90;;;;;;5080982;28;20175;-94
2022/02/12 08:02:44;;;;;;;6.37;2.00;;;6.10;99.90;;;;;;5076709;28;20471;-92
2022/02/12 08:05:10;;;;;;;5.27;1.47;;;6.20;99.90;;;;;;5074766;28;20189;-93
2022/02/12 08:07:41;;;;;;;5.60;2.03;;;5.90;99.90;;;;;;5074122;28;20247;-96
2022/02/12 08:12:57;;;;;;;6.43;1.40;;;4.60;99.90;;;;;;5074730;28;20465;-94
2022/02/12 08:15:23;;;;;;;9.43;2.27;;;4.40;99.90;;;;;;5073927;28;20474;-92
2022/02/12 08:17:49;;;;;;;8.73;1.60;;;4.90;99.90;;;;;;5074524;28;20415;-95
2022/02/12 08:20:14;;;;;;;8.03;1.60;;;6.20;99.90;;;;;;5076134;28;20426;-95
2022/02/12 08:22:40;;;;;;;9.87;2.00;;;6.60;99.90;;;;;;5094332;28;20181;-90
2022/02/12 08:25:06;;;;;;;7.80;1.93;;;7.10;99.90;;;;;;5093274;28;20170;-88
2022/02/12 08:27:32;;;;;;;6.03;1.70;;;7.70;99.90;;;;;;5111598;28;20181;-90
2022/02/12 08:29:58;;;;;;;8.57;1.30;;;7.40;99.90;;;;;;5094477;28;20440;-89
2022/02/12 08:32:23;;;;;;;5.63;1.37;;;7.20;99.90;;;;;;5078212;28;20444;-95
2022/02/12 08:34:50;;;;;;;5.33;1.50;;;6.30;99.90;;;;;;5076990;28;20235;-91
2022/02/12 08:37:16;;;;;;;7.90;1.77;;;7.60;99.90;;;;;;5077793;28;20185;-91
2022/02/12 08:39:41;;;;;;;8.53;2.00;;;8.40;99.90;;;;;;5081307;28;20892;-90
2022/02/12 08:42:09;;;;;;;10.70;1.73;;;8.50;99.90;;;;;;5076908;28;20256;-95
2022/02/12 08:44:35;;;;;;;5.97;1.60;;;8.00;99.90;;;;;;5076401;28;20192;-94
2022/02/12 08:47:02;;;;;;;4.47;2.20;;;8.60;99.90;;;;;;5077735;28;20421;-94
2022/02/12 08:49:28;;;;;;;5.93;2.63;;;8.50;99.90;;;;;;5077640;28;20411;-95
2022/02/12 08:51:57;;;;;;;4.63;1.83;;;8.20;99.90;;;;;;5076645;28;20427;-88
2022/02/12 08:54:24;;;;;;;5.23;1.20;;;8.80;99.70;;;;;;5093177;28;20454;-96
2022/02/12 08:56:49;;;;;;;5.20;2.70;;;8.80;99.90;;;;;;5076544;28;20441;-94
2022/02/12 08:59:15;;;;;;;5.27;2.13;;;9.00;98.90;;;;;;5076936;28;20196;-91
2022/02/12 09:01:41;;;;;;;5.40;2.10;;;9.90;96.90;;;;;;5078462;28;20621;-96
2022/02/12 09:04:09;;;;;;;4.53;2.10;;;10.60;95.60;;;;;;5079885;28;20271;-95
2022/02/12 09:06:36;;;;;;;6.40;1.97;;;10.50;93.90;;;;;;5082474;28;20425;-88
2022/02/12 09:09:02;;;;;;;6.63;2.17;;;10.40;93.60;;;;;;5082547;28;20434;-87
2022/02/12 09:11:28;;;;;;;3.90;2.00;;;10.30;94.00;;;;;;5076690;28;20876;-93
2022/02/12 09:13:55;;;;;;;7.20;2.30;;;10.20;94.60;;;;;;5075760;28;20416;-90
2022/02/12 09:16:23;;;;;;;5.13;1.97;;;9.60;95.60;;;;;;5076118;28;20508;-93
2022/02/12 09:18:52;;;;;;;6.13;1.73;;;9.40;95.70;;;;;;5076635;28;20453;-92
2022/02/12 09:21:18;;;;;;;6.90;1.57;;;10.00;95.10;;;;;;5077225;28;20969;-91
2022/02/12 09:23:43;;;;;;;7.77;2.20;;;9.70;96.00;;;;;;5075691;28;20429;-95
2022/02/12 09:26:09;;;;;;;3.50;1.97;;;10.30;94.80;;;;;;5077082;28;20504;-92
2022/02/12 09:28:34;;;;;;;4.40;2.23;;;10.00;94.50;;;;;;5076821;28;20202;-94
2022/02/12 09:31:02;;;;;;;11.17;3.00;;;9.60;95.70;;;;;;5077997;28;20188;-92
2022/02/12 09:33:28;;;;;;;6.33;2.40;;;8.90;97.10;;;;;;5076845;28;20262;-93
2022/02/12 09:35:56;;;;;;;6.20;2.10;;;9.20;97.50;;;;;;5079238;28;20511;-94
2022/02/12 09:38:25;;;;;;;6.33;2.77;;;8.60;98.10;;;;;;5077608;28;20430;-93
2022/02/12 09:40:52;;;;;;;9.23;2.37;;;9.10;99.20;;;;;;5079093;28;20512;-92
2022/02/12 09:43:21;;;;;;;5.47;1.30;;;9.50;96.80;;;;;;5078993;28;20454;-95
2022/02/12 09:46:13;;;;;;;7.63;2.10;;;9.40;95.40;;;;;;5080435;28;20531;-87
2022/02/12 09:48:40;;;;;;;8.40;1.93;;;9.20;94.40;;;;;;5080163;28;20415;-93
2022/02/12 09:51:06;;;;;;;3.77;1.97;;;7.70;96.10;;;;;;5076931;28;20514;-93
2022/02/12 09:53:32;;;;;;;5.57;2.00;;;8.40;97.50;;;;;;5077876;28;20457;-86
2022/02/12 09:55:59;;;;;;;3.73;0.93;;;8.80;96.00;;;;;;5078745;28;20209;-95
2022/02/12 09:58:24;;;;;;;6.13;2.03;;;9.70;94.10;;;;;;5079906;28;20174;-94
2022/02/12 10:00:50;;;;;;;4.03;1.47;;;10.40;93.00;;;;;;5079660;28;20421;-93
2022/02/12 10:03:16;;;;;;;5.07;1.37;;;10.00;91.40;;;;;;5079369;28;20231;-94
2022/02/12 10:05:53;;;;;;;6.00;1.60;;;9.40;93.30;;;;;;5078460;28;20188;-89
2022/02/12 10:08:22;;;;;;;5.37;1.33;;;9.50;94.00;;;;;;5078768;28;20184;-94
2022/02/12 10:10:51;;;;;;;4.57;1.67;;;9.50;93.50;;;;;;5079463;28;20424;-94
2022/02/12 10:13:19;;;;;;;9.33;1.30;;;8.90;93.50;;;;;;5094418;28;20413;-94
2022/02/12 10:15:49;;;;;;;4.23;1.30;;;8.50;93.70;;;;;;5080323;28;20518;-86
2022/02/12 10:18:17;;;;;;;3.33;1.27;;;8.60;94.70;;;;;;5086885;28;20446;-91
2022/02/12 10:20:43;;;;;;;6.30;1.03;;;8.20;94.90;;;;;;5094730;28;20479;-87
2022/02/12 10:23:10;;;;;;;4.90;2.63;;;8.20;96.90;;;;;;5095931;28;20413;-87
2022/02/12 10:25:38;;;;;;;9.40;1.77;;;8.00;94.30;;;;;;5094474;28;20949;-89
2022/02/12 10:28:05;;;;;;;4.63;1.30;;;8.40;95.60;;;;;;5083167;28;20426;-86
2022/02/12 10:30:31;;;;;;;5.03;1.90;;;8.70;94.40;;;;;;5073699;28;20935;-86
2022/02/12 10:32:59;;;;;;;2.80;0.93;;;9.70;93.10;;;;;;5076450;28;20412;-91
2022/02/12 10:35:25;;;;;;;8.20;1.37;;;10.10;90.50;;;;;;5075480;28;20478;-88
2022/02/12 10:37:51;;;;;;;5.00;0.93;;;9.70;92.00;;;;;;5074312;28;20409;-87
2022/02/12 10:40:17;;;;;;;9.40;1.67;;;9.20;93.20;;;;;;5075040;28;20430;-86
2022/02/12 10:42:46;;;;;;;7.53;1.37;;;10.60;91.10;;;;;;5075083;28;20179;-84
2022/02/12 10:45:16;;;;;;;3.03;1.10;;;12.10;87.00;;;;;;5077764;28;20179;-85
2022/02/12 10:47:43;;;;;;;4.83;1.20;;;13.30;99.90;;;;;;5098197;28;20436;-85
2022/02/12 10:50:10;;;;;;;3.60;1.17;;;13.70;99.90;;;;;;5095207;28;20423;-85
2022/02/12 10:52:40;;;;;;;3.00;0.77;;;12.60;99.90;;;;;;5096775;28;20506;-90
2022/02/12 10:55:07;;;;;;;4.83;1.10;;;12.20;99.90;;;;;;5094671;28;20461;-85
2022/02/12 10:57:38;;;;;;;6.20;1.17;;;12.70;99.90;;;;;;5094726;28;20423;-86
2022/02/12 11:00:07;;;;;;;3.73;1.20;;;13.60;99.90;;;;;;5095989;28;20403;-91
2022/02/12 11:02:37;;;;;;;6.40;1.43;;;13.30;99.90;;;;;;5095710;28;20870;-86
2022/02/12 11:05:04;;;;;;;4.57;1.13;;;13.50;99.90;;;;;;5094333;28;20938;-84
2022/02/12 11:07:30;;;;;;;5.30;1.40;;;13.70;99.90;;;;;;5093220;28;20935;-84
2022/02/12 11:09:56;;;;;;;4.30;1.50;;;13.20;99.90;;;;;;5093918;28;20413;-83
2022/02/12 11:12:25;;;;;;;4.20;1.70;;;13.60;99.90;;;;;;5093826;28;20937;-83
2022/02/12 11:14:51;;;;;;;5.00;0.83;;;13.60;99.90;;;;;;5092464;28;20207;-83
2022/02/12 11:17:22;;;;;;;5.10;1.30;;;13.30;99.90;;;;;;5093743;28;20786;-87
2022/02/12 11:19:49;;;;;;;6.50;0.90;;;13.70;99.90;;;;;;5093753;28;20497;-87
2022/02/12 11:22:16;;;;;;;5.33;1.43;;;13.80;99.90;;;;;;5093241;28;20940;-83
2022/02/12 11:24:44;;;;;;;2.40;0.50;;;12.70;99.90;;;;;;5094076;28;20399;-83
2022/02/12 11:27:16;;;;;;;5.43;0.83;;;12.80;99.90;;;;;;5093841;28;20463;-83
2022/02/12 11:29:44;;;;;;;3.87;0.90;;;12.50;99.90;;;;;;5093067;28;20944;-85
2022/02/12 11:32:16;;;;;;;3.27;1.10;;;13.30;99.90;;;;;;5094046;28;20460;-84
2022/02/12 11:35:09;;;;;;;5.10;0.97;;;13.60;99.90;;;;;;5093009;28;21006;-83
2022/02/12 11:37:44;;;;;;;3.50;0.63;;;14.20;99.90;;;;;;5089371;28;20518;-86
2022/02/12 11:40:28;;;;;;;2.03;0.83;;;12.50;99.90;;;;;;5094135;28;20508;-84
2022/02/12 11:43:05;;;;;;;5.30;0.83;;;12.80;99.90;;;;;;5092782;28;20425;-87
2022/02/12 11:45:42;;;;;;;4.10;1.07;;;12.30;99.90;;;;;;5093760;28;20401;-83
2022/02/12 11:48:26;;;;;;;3.50;1.00;;;13.10;99.90;;;;;;5094150;28;20463;-84
2022/02/12 11:51:07;;;;;;;6.10;0.87;;;14.00;99.90;;;;;;5093901;28;20951;-88
2022/02/12 11:53:49;;;;;;;6.27;1.67;;;13.40;99.90;;;;;;5093597;28;20463;-84
2022/02/12 11:56:17;;;;;;;3.20;0.70;;;13.40;99.90;;;;;;5093876;28;20499;-87
2022/02/12 11:58:42;;;;;;;3.63;0.63;;;13.30;99.90;;;;;;5092393;28;20415;-84
2022/02/12 12:01:28;;;;;;;2.43;0.57;;;12.30;99.90;;;;;;5093482;28;20947;-89
2022/02/12 12:04:15;;;;;;;3.03;0.97;;;11.50;99.90;;;;;;5093762;28;20622;-85
2022/02/12 12:07:01;;;;;;;2.50;0.70;;;12.30;99.90;;;;;;5092477;28;20460;-87
2022/02/12 12:09:31;;;;;;;3.60;1.13;;;12.20;99.90;;;;;;5091061;28;20428;-84
2022/02/12 12:12:16;;;;;;;5.57;1.30;;;12.20;99.90;;;;;;5093690;28;20396;-84
2022/02/12 12:14:42;;;;;;;2.10;0.73;;;12.60;99.90;;;;;;5093547;28;20452;-83
2022/02/12 12:17:08;;;;;;;3.57;1.10;;;12.70;99.90;;;;;;5093356;28;20425;-89
2022/02/12 12:19:36;;;;;;;3.73;0.70;;;13.10;99.90;;;;;;5093530;28;20751;-90
2022/02/12 12:22:10;;;;;;;4.97;1.03;;;12.30;99.90;;;;;;5092249;28;20438;-83
2022/02/12 12:24:37;;;;;;;5.70;1.20;;;13.50;99.90;;;;;;5093395;28;20409;-90
2022/02/12 12:27:03;;;;;;;3.20;0.87;;;13.60;99.90;;;;;;5093323;28;20413;-89
2022/02/12 12:32:19;;;;;;;4.47;1.13;;;13.60;99.90;;;;;;5093636;28;20443;-83
2022/02/12 12:34:48;;;;;;;5.73;1.47;;;13.40;99.90;;;;;;5093008;28;20961;-89
2022/02/12 12:37:14;;;;;;;6.50;0.73;;;12.70;99.90;;;;;;5092843;28;20416;-83
2022/02/12 12:39:39;;;;;;;4.10;1.43;;;12.10;99.90;;;;;;5093300;28;20952;-84
2022/02/12 12:42:15;;;;;;;5.13;0.77;;;13.10;99.90;;;;;;5075275;28;20173;-88
2022/02/12 12:44:44;;;;;;;4.40;0.60;;;12.60;99.90;;;;;;5093191;28;20165;-83
2022/02/12 12:47:10;;;;;;;4.47;1.40;;;12.50;99.90;;;;;;5091784;28;20428;-84
2022/02/12 12:49:40;;;;;;;4.20;1.53;;;13.00;99.90;;;;;;5092922;28;20423;-84
2022/02/12 12:52:10;;;;;;;2.80;1.27;;;12.10;99.90;;;;;;5092982;28;21037;-84
2022/02/12 12:54:46;;;;;;;3.47;0.70;;;11.60;99.90;;;;;;5093440;28;20402;-87
2022/02/12 12:57:13;;;;;;;5.37;1.90;;;11.40;99.90;;;;;;5093479;28;20414;-83
2022/02/12 12:59:56;;;;;;;5.33;0.90;;;11.90;99.90;;;;;;5093305;28;20413;-84
2022/02/12 13:02:23;;;;;;;1.50;0.70;;;13.70;99.90;;;;;;5093014;28;20457;-92
2022/02/12 13:04:57;;;;;;;5.20;1.20;;;14.00;99.90;;;;;;5093439;28;20443;-84
2022/02/12 13:07:25;;;;;;;4.77;1.40;;;12.40;99.90;;;;;;5092812;28;20756;-86
2022/02/12 13:09:55;;;;;;;3.63;0.97;;;11.30;99.90;;;;;;5092779;28;20476;-83
2022/02/12 13:12:27;;;;;;;3.80;0.90;;;10.50;99.90;;;;;;5093381;28;20893;-83